logo
Search for airport 
image banner adimage banner adimage banner ad
image banner ad

FABLOE - Bloemhof

Located in , South Africa

ICAO - , IATA -

Data provided by Airmate  

General information

Coordinates: S27°36'32" E25°34'44"
Elevation is 4127 feet MSL.
 
View others Airports in North-West

Operational data

Special qualification required
Current time UTC:
Current local time:
Weather at : - ( 0 km )
METAR: TXKF 150855Z VRB02KT 9999 FEW030 14/13 Q1022
View NOTAMs / SUP AIP / TFR affecting this airport [VIEW]
Communications frequencies: [VIEW]

Runways:

RWY identifierQFULength (ft)Width (ft)SurfaceLDA (ft)
17160°492166SAND
35340°492166SAND
1285°328166SAND
30265°328166SAND

Airport contact information

Address: South Africa

Satellite view of FABLOE